sensor_id;sensor_type;location;lat;lon;timestamp;pressure;altitude;pressure_sealevel;temperature;humidity
62152;BME280;48139;47.474;19.034;2023-02-13T04:46:33;102571.56;;;-0.28;100.00
62152;BME280;48139;47.474;19.034;2023-02-13T04:49:37;102571.56;;;-0.28;100.00
62152;BME280;48139;47.474;19.034;2023-02-13T04:52:39;102574.19;;;-0.77;100.00
62152;BME280;48139;47.474;19.034;2023-02-13T04:55:42;102571.56;;;-0.78;100.00
62152;BME280;48139;47.474;19.034;2023-02-13T04:58:45;102572.37;;;-0.79;100.00
62152;BME280;48139;47.474;19.034;2023-02-13T05:01:47;102568.94;;;-0.80;100.00
62152;BME280;48139;47.474;19.034;2023-02-13T05:04:50;102564.56;;;-0.83;100.00
62152;BME280;48139;47.474;19.034;2023-02-13T05:07:53;102562.81;;;-0.84;100.00
62152;BME280;48139;47.474;19.034;2023-02-13T05:10:55;102562.81;;;-0.84;100.00
62152;BME280;48139;47.474;19.034;2023-02-13T05:13:58;102565.69;;;-0.74;100.00
62152;BME280;48139;47.474;19.034;2023-02-13T05:17:01;102562.16;;;-0.78;100.00
62152;BME280;48139;47.474;19.034;2023-02-13T05:20:05;102551.84;;;-0.78;100.00
62152;BME280;48139;47.474;19.034;2023-02-13T05:23:12;102559.44;;;-0.83;100.00
62152;BME280;48139;47.474;19.034;2023-02-13T05:26:24;102544.00;;;-0.83;100.00
62152;BME280;48139;47.474;19.034;2023-02-13T05:29:27;102552.31;;;-0.90;100.00
62152;BME280;48139;47.474;19.034;2023-02-13T05:32:30;102544.91;;;-0.81;100.00
62152;BME280;48139;47.474;19.034;2023-02-13T05:35:32;102540.94;;;-0.96;100.00
62152;BME280;48139;47.474;19.034;2023-02-13T05:38:35;102541.25;;;-1.11;100.00
62152;BME280;48139;47.474;19.034;2023-02-13T05:41:37;102543.69;;;-1.15;100.00
62152;BME280;48139;47.474;19.034;2023-02-13T05:44:40;102552.97;;;-0.95;100.00
62152;BME280;48139;47.474;19.034;2023-02-13T05:47:43;102557.72;;;-1.06;100.00
62152;BME280;48139;47.474;19.034;2023-02-13T05:50:46;102559.97;;;-1.15;100.00
62152;BME280;48139;47.474;19.034;2023-02-13T05:53:49;102560.50;;;-1.25;100.00
62152;BME280;48139;47.474;19.034;2023-02-13T05:56:52;102563.06;;;-1.25;100.00
62152;BME280;48139;47.474;19.034;2023-02-13T05:59:54;102558.81;;;-1.23;100.00
62152;BME280;48139;47.474;19.034;2023-02-13T06:02:57;102562.41;;;-1.19;100.00
62152;BME280;48139;47.474;19.034;2023-02-13T06:06:00;102560.69;;;-0.95;100.00
62152;BME280;48139;47.474;19.034;2023-02-13T06:09:03;102562.25;;;-0.99;100.00
62152;BME280;48139;47.474;19.034;2023-02-13T06:12:06;102572.31;;;-1.06;100.00
62152;BME280;48139;47.474;19.034;2023-02-13T06:15:08;102578.87;;;-1.14;100.00
62152;BME280;48139;47.474;19.034;2023-02-13T06:18:11;102590.34;;;-1.05;100.00
62152;BME280;48139;47.474;19.034;2023-02-13T06:21:13;102598.41;;;-0.96;100.00
62152;BME280;48139;47.474;19.034;2023-02-13T06:24:16;102593.19;;;-0.97;100.00
62152;BME280;48139;47.474;19.034;2023-02-13T06:27:19;102593.19;;;-0.97;100.00
62152;BME280;48139;47.474;19.034;2023-02-13T06:30:22;102600.25;;;-0.92;100.00
62152;BME280;48139;47.474;19.034;2023-02-13T06:33:25;102592.44;;;-0.95;100.00
62152;BME280;48139;47.474;19.034;2023-02-13T06:36:28;102601.50;;;-0.81;100.00
62152;BME280;48139;47.474;19.034;2023-02-13T06:39:31;102608.12;;;-0.63;100.00
62152;BME280;48139;47.474;19.034;2023-02-13T06:42:34;102607.50;;;-0.56;100.00
62152;BME280;48139;47.474;19.034;2023-02-13T06:45:36;102601.03;;;-0.45;100.00
62152;BME280;48139;47.474;19.034;2023-02-13T06:48:40;102601.66;;;-0.27;100.00
62152;BME280;48139;47.474;19.034;2023-02-13T06:51:43;102599.06;;;-0.27;100.00
62152;BME280;48139;47.474;19.034;2023-02-13T06:54:45;102601.84;;;-0.21;100.00
62152;BME280;48139;47.474;19.034;2023-02-13T06:57:49;102613.00;;;0.05;100.00
62152;BME280;48139;47.474;19.034;2023-02-13T07:00:52;102598.06;;;0.22;100.00
62152;BME280;48139;47.474;19.034;2023-02-13T07:03:55;102608.03;;;0.39;100.00
62152;BME280;48139;47.474;19.034;2023-02-13T07:06:58;102606.34;;;0.40;100.00
62152;BME280;48139;47.474;19.034;2023-02-13T07:10:01;102600.53;;;0.47;100.00
62152;BME280;48139;47.474;19.034;2023-02-13T07:13:04;102606.47;;;0.45;100.00
62152;BME280;48139;47.474;19.034;2023-02-13T07:16:07;102604.06;;;0.51;100.00
62152;BME280;48139;47.474;19.034;2023-02-13T07:19:10;102606.00;;;0.58;100.00
62152;BME280;48139;47.474;19.034;2023-02-13T07:22:13;102610.47;;;0.92;100.00
62152;BME280;48139;47.474;19.034;2023-02-13T07:25:16;102608.97;;;1.00;100.00
62152;BME280;48139;47.474;19.034;2023-02-13T07:28:19;102611.72;;;1.06;100.00
62152;BME280;48139;47.474;19.034;2023-02-13T07:31:22;102612.13;;;1.21;100.00
62152;BME280;48139;47.474;19.034;2023-02-13T07:34:25;102609.22;;;1.40;100.00
62152;BME280;48139;47.474;19.034;2023-02-13T07:37:29;102598.22;;;1.47;100.00
62152;BME280;48139;47.474;19.034;2023-02-13T07:40:31;102598.38;;;1.53;100.00
62152;BME280;48139;47.474;19.034;2023-02-13T07:43:34;102606.13;;;1.53;100.00
62152;BME280;48139;47.474;19.034;2023-02-13T07:46:37;102610.50;;;1.57;100.00
62152;BME280;48139;47.474;19.034;2023-02-13T07:49:40;102614.28;;;1.70;100.00
62152;BME280;48139;47.474;19.034;2023-02-13T07:52:43;102609.22;;;1.73;100.00
62152;BME280;48139;47.474;19.034;2023-02-13T07:55:46;102624.06;;;1.82;100.00
62152;BME280;48139;47.474;19.034;2023-02-13T07:58:48;102619.13;;;1.91;100.00
62152;BME280;48139;47.474;19.034;2023-02-13T08:01:51;102626.34;;;2.04;100.00
62152;BME280;48139;47.474;19.034;2023-02-13T08:04:54;102625.66;;;2.11;100.00
62152;BME280;48139;47.474;19.034;2023-02-13T08:08:04;102619.94;;;2.26;100.00
62152;BME280;48139;47.474;19.034;2023-02-13T08:11:26;102619.53;;;2.45;100.00
62152;BME280;48139;47.474;19.034;2023-02-13T08:14:50;102626.56;;;2.51;100.00
62152;BME280;48139;47.474;19.034;2023-02-13T08:17:54;102614.75;;;2.62;100.00
62152;BME280;48139;47.474;19.034;2023-02-13T08:20:56;102617.25;;;2.59;100.00
62152;BME280;48139;47.474;19.034;2023-02-13T08:24:00;102610.59;;;2.70;98.92
62152;BME280;48139;47.474;19.034;2023-02-13T08:27:02;102610.22;;;2.94;95.61
62152;BME280;48139;47.474;19.034;2023-02-13T08:30:06;102610.03;;;4.29;88.15
62152;BME280;48139;47.474;19.034;2023-02-13T08:33:09;102600.28;;;6.71;67.71
62152;BME280;48139;47.474;19.034;2023-02-13T08:36:11;102593.16;;;9.31;53.85
62152;BME280;48139;47.474;19.034;2023-02-13T08:39:14;102587.66;;;10.65;46.22
62152;BME280;48139;47.474;19.034;2023-02-13T08:42:17;102588.12;;;11.56;43.18
62152;BME280;48139;47.474;19.034;2023-02-13T08:45:19;102590.69;;;12.14;42.16
62152;BME280;48139;47.474;19.034;2023-02-13T08:48:22;102580.06;;;13.06;38.84
62152;BME280;48139;47.474;19.034;2023-02-13T08:51:24;102593.34;;;12.12;39.64
62152;BME280;48139;47.474;19.034;2023-02-13T08:54:27;102586.81;;;9.68;44.49
62152;BME280;48139;47.474;19.034;2023-02-13T08:57:30;102590.94;;;8.46;49.03
62152;BME280;48139;47.474;19.034;2023-02-13T09:00:33;102592.84;;;9.78;46.49
62152;BME280;48139;47.474;19.034;2023-02-13T09:03:35;102588.59;;;10.57;44.24
62152;BME280;48139;47.474;19.034;2023-02-13T09:06:38;102585.56;;;12.08;40.63
62152;BME280;48139;47.474;19.034;2023-02-13T09:09:41;102589.69;;;12.23;41.10
62152;BME280;48139;47.474;19.034;2023-02-13T09:12:50;102579.91;;;12.74;38.51
62152;BME280;48139;47.474;19.034;2023-02-13T09:15:53;102585.06;;;12.78;39.02
62152;BME280;48139;47.474;19.034;2023-02-13T09:18:56;102598.25;;;11.83;40.21
62152;BME280;48139;47.474;19.034;2023-02-13T09:21:59;102589.56;;;11.20;42.00
62152;BME280;48139;47.474;19.034;2023-02-13T09:25:02;102586.91;;;10.56;43.14
62152;BME280;48139;47.474;19.034;2023-02-13T09:28:05;102586.16;;;9.38;46.59
62152;BME280;48139;47.474;19.034;2023-02-13T09:31:13;102602.28;;;7.57;51.22
62152;BME280;48139;47.474;19.034;2023-02-13T09:34:17;102597.62;;;6.54;57.44
62152;BME280;48139;47.474;19.034;2023-02-13T09:37:19;102595.56;;;6.07;60.73
62152;BME280;48139;47.474;19.034;2023-02-13T09:40:42;102598.56;;;5.53;64.74
62152;BME280;48139;47.474;19.034;2023-02-13T09:44:45;102592.63;;;5.68;67.21
62152;BME280;48139;47.474;19.034;2023-02-13T09:47:38;102593.69;;;5.88;66.35
62152;BME280;48139;47.474;19.034;2023-02-13T09:50:42;102587.69;;;5.95;66.75
62152;BME280;48139;47.474;19.034;2023-02-13T09:53:58;102592.16;;;6.12;65.94
62152;BME280;48139;47.474;19.034;2023-02-13T10:00:19;102580.00;;;6.11;63.26
62152;BME280;48139;47.474;19.034;2023-02-13T10:14:03;102574.09;;;6.39;62.99
62152;BME280;48139;47.474;19.034;2023-02-13T10:17:14;102558.56;;;6.59;63.21
62152;BME280;48139;47.474;19.034;2023-02-13T10:23:46;102555.22;;;6.87;62.05
62152;BME280;48139;47.474;19.034;2023-02-13T10:26:52;102552.63;;;6.96;62.90
62152;BME280;48139;47.474;19.034;2023-02-13T10:30:03;102557.84;;;6.92;63.27
62152;BME280;48139;47.474;19.034;2023-02-13T10:33:25;102557.00;;;7.08;61.80
62152;BME280;48139;47.474;19.034;2023-02-13T10:36:33;102550.09;;;7.11;61.36
62152;BME280;48139;47.474;19.034;2023-02-13T10:39:40;102549.22;;;7.21;61.59
62152;BME280;48139;47.474;19.034;2023-02-13T10:42:46;102544.00;;;7.21;60.08
62152;BME280;48139;47.474;19.034;2023-02-13T10:46:02;102541.41;;;7.29;62.13
62152;BME280;48139;47.474;19.034;2023-02-13T10:59:29;102524.06;;;7.60;58.23
62152;BME280;48139;47.474;19.034;2023-02-13T11:02:36;102520.56;;;7.67;60.12
62152;BME280;48139;47.474;19.034;2023-02-13T11:05:39;102510.12;;;7.68;59.53
62152;BME280;48139;47.474;19.034;2023-02-13T11:08:46;102504.94;;;7.67;58.21
62152;BME280;48139;47.474;19.034;2023-02-13T11:11:49;102504.91;;;7.65;59.04
62152;BME280;48139;47.474;19.034;2023-02-13T11:15:05;102502.31;;;7.79;57.47
62152;BME280;48139;47.474;19.034;2023-02-13T11:18:16;102488.38;;;7.71;58.00
62152;BME280;48139;47.474;19.034;2023-02-13T11:21:22;102481.44;;;7.87;59.75
62152;BME280;48139;47.474;19.034;2023-02-13T11:24:35;102477.94;;;7.85;58.90
62152;BME280;48139;47.474;19.034;2023-02-13T11:27:38;102482.28;;;7.92;58.39
62152;BME280;48139;47.474;19.034;2023-02-13T11:30:41;102477.84;;;8.14;57.73
62152;BME280;48139;47.474;19.034;2023-02-13T11:33:44;102475.28;;;8.04;57.63
62152;BME280;48139;47.474;19.034;2023-02-13T11:37:07;102469.22;;;7.90;57.03
62152;BME280;48139;47.474;19.034;2023-02-13T11:40:28;102464.00;;;7.90;57.63
62152;BME280;48139;47.474;19.034;2023-02-13T11:43:53;102461.38;;;8.02;57.94
62152;BME280;48139;47.474;19.034;2023-02-13T11:47:02;102455.19;;;8.29;58.03
62152;BME280;48139;47.474;19.034;2023-02-13T11:50:19;102449.94;;;8.41;56.75
62152;BME280;48139;47.474;19.034;2023-02-13T11:53:26;102441.25;;;8.32;56.00
62152;BME280;48139;47.474;19.034;2023-02-13T11:57:01;102447.37;;;8.19;56.92
62152;BME280;48139;47.474;19.034;2023-02-13T12:00:33;102436.91;;;8.32;56.92
62152;BME280;48139;47.474;19.034;2023-02-13T12:03:40;102438.66;;;8.36;56.66
62152;BME280;48139;47.474;19.034;2023-02-13T12:06:59;102444.78;;;8.23;57.14
62152;BME280;48139;47.474;19.034;2023-02-13T12:10:29;102445.62;;;8.22;57.12
62152;BME280;48139;47.474;19.034;2023-02-13T12:13:37;102435.19;;;8.22;57.13
62152;BME280;48139;47.474;19.034;2023-02-13T12:16:44;102441.38;;;7.97;57.72
62152;BME280;48139;47.474;19.034;2023-02-13T12:19:49;102436.09;;;8.12;59.44
62152;BME280;48139;47.474;19.034;2023-02-13T12:23:11;102435.19;;;8.21;57.66
62152;BME280;48139;47.474;19.034;2023-02-13T12:39:57;102409.94;;;8.36;58.08
62152;BME280;48139;47.474;19.034;2023-02-13T12:43:20;102410.81;;;8.37;58.98
62152;BME280;48139;47.474;19.034;2023-02-13T12:46:39;102393.25;;;8.57;58.16
62152;BME280;48139;47.474;19.034;2023-02-13T12:56:26;102383.53;;;8.77;57.72
62152;BME280;48139;47.474;19.034;2023-02-13T12:59:47;102373.03;;;8.85;56.92
62152;BME280;48139;47.474;19.034;2023-02-13T13:03:28;102366.91;;;8.89;57.37
62152;BME280;48139;47.474;19.034;2023-02-13T13:06:44;102359.16;;;8.78;57.38
62152;BME280;48139;47.474;19.034;2023-02-13T13:17:03;102360.97;;;8.66;60.76
62152;BME280;48139;47.474;19.034;2023-02-13T13:20:34;102358.28;;;8.75;61.89
62152;BME280;48139;47.474;19.034;2023-02-13T13:23:45;102355.56;;;8.88;62.17
62152;BME280;48139;47.474;19.034;2023-02-13T13:26:51;102349.50;;;8.86;62.20
62152;BME280;48139;47.474;19.034;2023-02-13T13:30:05;102352.09;;;8.89;61.78
62152;BME280;48139;47.474;19.034;2023-02-13T13:33:20;102339.88;;;8.93;62.50
62152;BME280;48139;47.474;19.034;2023-02-13T13:36:35;102351.09;;;9.03;61.93
62152;BME280;48139;47.474;19.034;2023-02-13T13:43:39;102351.94;;;9.06;63.13
62152;BME280;48139;47.474;19.034;2023-02-13T13:49:52;102350.72;;;9.41;60.57
62152;BME280;48139;47.474;19.034;2023-02-13T13:53:15;102347.28;;;9.37;61.52
62152;BME280;48139;47.474;19.034;2023-02-13T13:56:20;102344.66;;;9.37;60.90
62152;BME280;48139;47.474;19.034;2023-02-13T14:02:41;102347.44;;;9.20;60.54
62152;BME280;48139;47.474;19.034;2023-02-13T14:06:00;102341.53;;;9.00;60.37
62152;BME280;48139;47.474;19.034;2023-02-13T14:09:04;102343.44;;;8.81;61.74
62152;BME280;48139;47.474;19.034;2023-02-13T14:18:45;102349.56;;;8.79;62.72
62152;BME280;48139;47.474;19.034;2023-02-13T14:21:48;102353.06;;;8.79;63.50
62152;BME280;48139;47.474;19.034;2023-02-13T14:24:59;102347.78;;;8.85;64.25
62152;BME280;48139;47.474;19.034;2023-02-13T14:28:03;102353.06;;;8.79;64.26
62152;BME280;48139;47.474;19.034;2023-02-13T14:34:27;102354.84;;;8.70;65.84
62152;BME280;48139;47.474;19.034;2023-02-13T14:37:37;102356.72;;;8.53;67.11
62152;BME280;48139;47.474;19.034;2023-02-13T14:40:52;102362.88;;;8.39;68.46
62152;BME280;48139;47.474;19.034;2023-02-13T14:43:55;102358.59;;;8.29;69.74
62152;BME280;48139;47.474;19.034;2023-02-13T14:50:27;102352.66;;;7.98;72.57
62152;BME280;48139;47.474;19.034;2023-02-13T14:53:37;102354.47;;;7.70;74.63
62152;BME280;48139;47.474;19.034;2023-02-13T14:56:47;102369.28;;;7.73;75.80
62152;BME280;48139;47.474;19.034;2023-02-13T14:59:55;102369.25;;;7.70;76.38
62152;BME280;48139;47.474;19.034;2023-02-13T15:06:25;102368.44;;;7.44;79.28
62152;BME280;48139;47.474;19.034;2023-02-13T15:09:39;102356.34;;;7.37;81.13
62152;BME280;48139;47.474;19.034;2023-02-13T15:12:55;102357.19;;;7.31;81.76
62152;BME280;48139;47.474;19.034;2023-02-13T15:16:00;102360.69;;;7.19;83.55
62152;BME280;48139;47.474;19.034;2023-02-13T15:19:13;102355.47;;;7.07;83.87
62152;BME280;48139;47.474;19.034;2023-02-13T15:22:30;102360.69;;;7.00;84.58
62152;BME280;48139;47.474;19.034;2023-02-13T15:25:35;102368.50;;;7.00;85.20
62152;BME280;48139;47.474;19.034;2023-02-13T15:28:38;102367.66;;;7.08;84.36
62152;BME280;48139;47.474;19.034;2023-02-13T15:31:40;102365.91;;;7.12;83.98
62152;BME280;48139;47.474;19.034;2023-02-13T15:34:46;102372.84;;;7.08;84.19
62152;BME280;48139;47.474;19.034;2023-02-13T15:37:49;102370.25;;;6.92;85.79
62152;BME280;48139;47.474;19.034;2023-02-13T15:40:55;102362.44;;;7.02;85.04
62152;BME280;48139;47.474;19.034;2023-02-13T15:44:00;102358.97;;;7.03;85.32
62152;BME280;48139;47.474;19.034;2023-02-13T15:47:26;102352.03;;;6.99;85.44
62152;BME280;48139;47.474;19.034;2023-02-13T15:50:33;102355.47;;;7.07;85.09
62152;BME280;48139;47.474;19.034;2023-02-13T15:53:49;102348.53;;;7.02;85.33
62152;BME280;48139;47.474;19.034;2023-02-13T15:56:56;102355.47;;;6.95;85.77
62152;BME280;48139;47.474;19.034;2023-02-13T16:00:00;102355.50;;;6.91;86.29
62152;BME280;48139;47.474;19.034;2023-02-13T16:03:16;102354.63;;;6.78;87.35
62152;BME280;48139;47.474;19.034;2023-02-13T16:06:20;102355.50;;;6.74;87.40
62152;BME280;48139;47.474;19.034;2023-02-13T16:09:32;102350.28;;;6.78;86.92
62152;BME280;48139;47.474;19.034;2023-02-13T16:12:35;102365.91;;;6.71;87.36
62152;BME280;48139;47.474;19.034;2023-02-13T16:15:41;102368.50;;;6.69;87.45
62152;BME280;48139;47.474;19.034;2023-02-13T16:18:45;102372.84;;;6.81;87.37
62152;BME280;48139;47.474;19.034;2023-02-13T16:21:48;102372.00;;;6.89;86.23
62152;BME280;48139;47.474;19.034;2023-02-13T16:25:21;102366.78;;;6.89;86.69
62152;BME280;48139;47.474;19.034;2023-02-13T16:28:27;102372.84;;;6.78;87.01
62152;BME280;48139;47.474;19.034;2023-02-13T16:31:33;102369.37;;;6.65;88.16
62152;BME280;48139;47.474;19.034;2023-02-13T16:34:36;102358.06;;;6.46;88.89
62152;BME280;48139;47.474;19.034;2023-02-13T16:37:49;102360.66;;;6.40;89.58
62152;BME280;48139;47.474;19.034;2023-02-13T16:40:53;102351.09;;;6.35;90.85
62152;BME280;48139;47.474;19.034;2023-02-13T16:44:00;102353.69;;;6.35;90.16
